To NAV CANADA Home Page Login to a new session Search on AWWS site Disclaimer Vers la page française équivalente Tips FAQ What's new on the site To the Forecasts and Observations / NOTAM section To "File a Flight Plan" website Publications and other links Update of the User's profile FIC Telephone Numbers My Weather Data Folder Route Weather Data Regional Weather Data Local Weather Data To the Forecasts and Observations / NOTAM section
Request Generated 03/21/2019 at 01:46:56 UTC . Weather information available at that time is displayed.

METAR/TAF

FORT SIMPSON/NT    

METAR CYFS 210100Z 34005KT 15SM FEW210 09/M05 A3020 RMK CI1 SLP238=
METAR CYFS 210000Z 02006KT 330V050 15SM FEW210 11/M06 A3021 RMK CI1 SLP242=
METAR CYFS 202300Z 35008KT 15SM FEW210 10/M04 A3021 RMK CI1 SLP243=

TAF CYFS 202338Z 2100/2112 34010KT P6SM FEW210
BECMG 2104/2106 12007KT
RMK NXT FCST BY 210600Z=
Your time UTC time
Weather data provided by Environment Canada and NAV CANADA